sensor_id;sensor_type;location;lat;lon;timestamp;P1;durP1;ratioP1;P2;durP2;ratioP2
52031;SDS011;38044;45.148;39.604;2023-02-28T00:00:16;18.85;;;10.98;;
52031;SDS011;38044;45.148;39.604;2023-02-28T00:02:43;20.73;;;11.77;;
52031;SDS011;38044;45.148;39.604;2023-02-28T00:05:11;17.20;;;12.48;;
52031;SDS011;38044;45.148;39.604;2023-02-28T00:07:39;18.10;;;11.52;;
52031;SDS011;38044;45.148;39.604;2023-02-28T00:10:06;20.58;;;11.35;;
52031;SDS011;38044;45.148;39.604;2023-02-28T00:12:34;17.65;;;10.95;;
52031;SDS011;38044;45.148;39.604;2023-02-28T00:15:01;20.88;;;12.20;;
52031;SDS011;38044;45.148;39.604;2023-02-28T00:17:27;19.15;;;13.15;;
52031;SDS011;38044;45.148;39.604;2023-02-28T00:19:53;17.50;;;11.95;;
52031;SDS011;38044;45.148;39.604;2023-02-28T00:22:20;23.08;;;13.60;;
52031;SDS011;38044;45.148;39.604;2023-02-28T00:24:46;22.35;;;14.35;;
52031;SDS011;38044;45.148;39.604;2023-02-28T00:27:12;21.38;;;14.15;;
52031;SDS011;38044;45.148;39.604;2023-02-28T00:29:39;22.92;;;12.93;;
52031;SDS011;38044;45.148;39.604;2023-02-28T00:32:05;23.45;;;15.70;;
52031;SDS011;38044;45.148;39.604;2023-02-28T00:34:32;24.48;;;14.70;;
52031;SDS011;38044;45.148;39.604;2023-02-28T00:37:06;24.33;;;15.18;;
52031;SDS011;38044;45.148;39.604;2023-02-28T00:39:34;23.92;;;14.88;;
52031;SDS011;38044;45.148;39.604;2023-02-28T00:42:01;19.98;;;13.95;;
52031;SDS011;38044;45.148;39.604;2023-02-28T00:44:28;24.98;;;14.45;;
52031;SDS011;38044;45.148;39.604;2023-02-28T00:46:54;25.88;;;15.18;;
52031;SDS011;38044;45.148;39.604;2023-02-28T00:49:20;22.95;;;14.30;;
52031;SDS011;38044;45.148;39.604;2023-02-28T00:51:46;21.95;;;14.75;;
52031;SDS011;38044;45.148;39.604;2023-02-28T00:54:13;25.13;;;14.15;;
52031;SDS011;38044;45.148;39.604;2023-02-28T00:56:39;22.58;;;15.23;;
52031;SDS011;38044;45.148;39.604;2023-02-28T00:59:05;21.58;;;15.32;;
52031;SDS011;38044;45.148;39.604;2023-02-28T01:01:31;22.52;;;14.55;;
52031;SDS011;38044;45.148;39.604;2023-02-28T01:03:57;30.45;;;15.45;;
52031;SDS011;38044;45.148;39.604;2023-02-28T01:06:22;23.42;;;15.13;;
52031;SDS011;38044;45.148;39.604;2023-02-28T01:08:48;22.45;;;15.30;;
52031;SDS011;38044;45.148;39.604;2023-02-28T01:11:15;26.73;;;16.80;;
52031;SDS011;38044;45.148;39.604;2023-02-28T01:13:44;28.17;;;16.38;;
52031;SDS011;38044;45.148;39.604;2023-02-28T01:16:11;29.67;;;16.55;;
52031;SDS011;38044;45.148;39.604;2023-02-28T01:18:37;23.92;;;15.05;;
52031;SDS011;38044;45.148;39.604;2023-02-28T01:21:05;26.67;;;15.88;;
52031;SDS011;38044;45.148;39.604;2023-02-28T01:23:33;25.08;;;15.43;;
52031;SDS011;38044;45.148;39.604;2023-02-28T01:26:06;22.92;;;16.25;;
52031;SDS011;38044;45.148;39.604;2023-02-28T01:28:42;27.20;;;15.80;;
52031;SDS011;38044;45.148;39.604;2023-02-28T01:31:08;23.77;;;15.20;;
52031;SDS011;38044;45.148;39.604;2023-02-28T01:33:35;29.75;;;16.80;;
52031;SDS011;38044;45.148;39.604;2023-02-28T01:36:06;26.70;;;14.75;;
52031;SDS011;38044;45.148;39.604;2023-02-28T01:38:34;25.05;;;16.15;;
52031;SDS011;38044;45.148;39.604;2023-02-28T01:41:01;29.13;;;16.70;;
52031;SDS011;38044;45.148;39.604;2023-02-28T01:46:51;22.77;;;15.33;;
52031;SDS011;38044;45.148;39.604;2023-02-28T01:49:16;21.40;;;15.20;;
52031;SDS011;38044;45.148;39.604;2023-02-28T01:51:44;29.55;;;16.05;;
52031;SDS011;38044;45.148;39.604;2023-02-28T01:54:16;27.20;;;15.80;;
52031;SDS011;38044;45.148;39.604;2023-02-28T01:56:49;27.15;;;15.90;;
52031;SDS011;38044;45.148;39.604;2023-02-28T01:59:24;25.38;;;16.27;;
52031;SDS011;38044;45.148;39.604;2023-02-28T02:02:14;23.50;;;15.77;;
52031;SDS011;38044;45.148;39.604;2023-02-28T02:05:06;23.33;;;15.55;;
52031;SDS011;38044;45.148;39.604;2023-02-28T02:07:36;23.70;;;15.65;;
52031;SDS011;38044;45.148;39.604;2023-02-28T02:10:25;22.98;;;16.13;;
52031;SDS011;38044;45.148;39.604;2023-02-28T02:15:48;22.33;;;14.70;;
52031;SDS011;38044;45.148;39.604;2023-02-28T02:23:33;26.10;;;15.25;;
52031;SDS011;38044;45.148;39.604;2023-02-28T02:29:07;25.20;;;15.50;;
52031;SDS011;38044;45.148;39.604;2023-02-28T02:42:28;21.48;;;13.93;;
52031;SDS011;38044;45.148;39.604;2023-02-28T02:45:04;19.27;;;13.35;;
52031;SDS011;38044;45.148;39.604;2023-02-28T02:47:34;19.20;;;14.23;;
52031;SDS011;38044;45.148;39.604;2023-02-28T02:50:04;18.50;;;12.88;;
52031;SDS011;38044;45.148;39.604;2023-02-28T02:52:36;22.75;;;13.55;;
52031;SDS011;38044;45.148;39.604;2023-02-28T02:55:07;21.42;;;13.68;;
52031;SDS011;38044;45.148;39.604;2023-02-28T02:57:38;20.10;;;12.63;;
52031;SDS011;38044;45.148;39.604;2023-02-28T03:00:17;21.92;;;12.45;;
52031;SDS011;38044;45.148;39.604;2023-02-28T03:02:48;21.98;;;12.63;;
52031;SDS011;38044;45.148;39.604;2023-02-28T03:05:21;22.77;;;13.30;;
52031;SDS011;38044;45.148;39.604;2023-02-28T03:07:51;20.13;;;13.43;;
52031;SDS011;38044;45.148;39.604;2023-02-28T03:10:34;20.80;;;12.75;;
52031;SDS011;38044;45.148;39.604;2023-02-28T03:13:15;28.13;;;12.70;;
52031;SDS011;38044;45.148;39.604;2023-02-28T03:18:36;41.72;;;14.20;;
52031;SDS011;38044;45.148;39.604;2023-02-28T03:21:28;32.30;;;14.68;;
52031;SDS011;38044;45.148;39.604;2023-02-28T03:27:05;30.65;;;13.90;;
52031;SDS011;38044;45.148;39.604;2023-02-28T03:29:39;33.95;;;13.85;;
52031;SDS011;38044;45.148;39.604;2023-02-28T03:38:05;32.28;;;13.55;;
52031;SDS011;38044;45.148;39.604;2023-02-28T03:40:58;32.30;;;12.65;;
52031;SDS011;38044;45.148;39.604;2023-02-28T03:43:32;24.75;;;13.55;;
52031;SDS011;38044;45.148;39.604;2023-02-28T03:46:02;35.70;;;14.07;;
52031;SDS011;38044;45.148;39.604;2023-02-28T03:48:38;30.47;;;12.30;;
52031;SDS011;38044;45.148;39.604;2023-02-28T03:51:09;32.65;;;13.10;;
52031;SDS011;38044;45.148;39.604;2023-02-28T03:53:42;30.85;;;12.45;;
52031;SDS011;38044;45.148;39.604;2023-02-28T03:56:17;27.27;;;13.60;;
52031;SDS011;38044;45.148;39.604;2023-02-28T03:58:55;33.75;;;14.52;;
52031;SDS011;38044;45.148;39.604;2023-02-28T04:01:33;28.23;;;13.50;;
52031;SDS011;38044;45.148;39.604;2023-02-28T04:04:06;30.63;;;12.98;;
52031;SDS011;38044;45.148;39.604;2023-02-28T04:06:36;34.10;;;14.75;;
52031;SDS011;38044;45.148;39.604;2023-02-28T04:09:03;27.90;;;13.70;;
52031;SDS011;38044;45.148;39.604;2023-02-28T04:11:34;31.90;;;14.75;;
52031;SDS011;38044;45.148;39.604;2023-02-28T04:14:07;26.33;;;13.00;;
52031;SDS011;38044;45.148;39.604;2023-02-28T04:16:35;24.40;;;12.77;;
52031;SDS011;38044;45.148;39.604;2023-02-28T04:19:03;27.55;;;12.95;;
52031;SDS011;38044;45.148;39.604;2023-02-28T04:21:31;29.42;;;13.50;;
52031;SDS011;38044;45.148;39.604;2023-02-28T04:23:59;29.75;;;13.57;;
52031;SDS011;38044;45.148;39.604;2023-02-28T04:26:35;38.28;;;15.38;;
52031;SDS011;38044;45.148;39.604;2023-02-28T04:29:02;24.25;;;13.60;;
52031;SDS011;38044;45.148;39.604;2023-02-28T04:31:30;36.53;;;14.00;;
52031;SDS011;38044;45.148;39.604;2023-02-28T04:33:56;30.55;;;14.00;;
52031;SDS011;38044;45.148;39.604;2023-02-28T04:36:22;23.98;;;13.90;;
52031;SDS011;38044;45.148;39.604;2023-02-28T04:38:48;25.60;;;12.93;;
52031;SDS011;38044;45.148;39.604;2023-02-28T04:41:15;23.30;;;12.70;;
52031;SDS011;38044;45.148;39.604;2023-02-28T04:43:41;22.20;;;12.50;;
52031;SDS011;38044;45.148;39.604;2023-02-28T04:46:07;24.13;;;12.10;;
52031;SDS011;38044;45.148;39.604;2023-02-28T04:48:36;20.92;;;12.60;;
52031;SDS011;38044;45.148;39.604;2023-02-28T04:51:08;29.77;;;14.00;;
52031;SDS011;38044;45.148;39.604;2023-02-28T04:53:37;29.27;;;14.25;;
52031;SDS011;38044;45.148;39.604;2023-02-28T04:56:04;34.60;;;13.88;;
52031;SDS011;38044;45.148;39.604;2023-02-28T04:58:31;38.22;;;13.68;;
52031;SDS011;38044;45.148;39.604;2023-02-28T05:01:05;36.70;;;15.48;;
52031;SDS011;38044;45.148;39.604;2023-02-28T05:03:41;31.85;;;14.80;;
52031;SDS011;38044;45.148;39.604;2023-02-28T05:06:07;32.28;;;14.27;;
52031;SDS011;38044;45.148;39.604;2023-02-28T05:08:34;46.50;;;15.10;;
52031;SDS011;38044;45.148;39.604;2023-02-28T05:11:00;33.55;;;15.85;;
52031;SDS011;38044;45.148;39.604;2023-02-28T05:13:26;30.15;;;14.65;;
52031;SDS011;38044;45.148;39.604;2023-02-28T05:15:53;31.98;;;15.32;;
52031;SDS011;38044;45.148;39.604;2023-02-28T05:18:19;27.83;;;14.45;;
52031;SDS011;38044;45.148;39.604;2023-02-28T05:20:44;24.70;;;15.75;;
52031;SDS011;38044;45.148;39.604;2023-02-28T05:23:11;42.92;;;15.25;;
52031;SDS011;38044;45.148;39.604;2023-02-28T05:25:38;21.50;;;13.52;;
52031;SDS011;38044;45.148;39.604;2023-02-28T05:28:05;26.80;;;11.55;;
52031;SDS011;38044;45.148;39.604;2023-02-28T05:30:31;26.58;;;12.02;;
52031;SDS011;38044;45.148;39.604;2023-02-28T05:32:57;24.92;;;12.02;;
52031;SDS011;38044;45.148;39.604;2023-02-28T05:35:24;17.05;;;9.30;;
52031;SDS011;38044;45.148;39.604;2023-02-28T05:37:50;17.27;;;9.80;;
52031;SDS011;38044;45.148;39.604;2023-02-28T05:40:16;14.00;;;9.68;;
52031;SDS011;38044;45.148;39.604;2023-02-28T05:42:44;16.83;;;8.63;;
52031;SDS011;38044;45.148;39.604;2023-02-28T05:45:10;12.10;;;9.25;;
52031;SDS011;38044;45.148;39.604;2023-02-28T05:47:36;19.00;;;8.02;;
52031;SDS011;38044;45.148;39.604;2023-02-28T05:50:02;15.75;;;8.60;;
52031;SDS011;38044;45.148;39.604;2023-02-28T05:52:28;15.93;;;8.15;;
52031;SDS011;38044;45.148;39.604;2023-02-28T05:54:57;23.33;;;8.52;;
52031;SDS011;38044;45.148;39.604;2023-02-28T05:57:23;18.33;;;6.35;;
52031;SDS011;38044;45.148;39.604;2023-02-28T05:59:49;11.65;;;5.40;;
52031;SDS011;38044;45.148;39.604;2023-02-28T06:02:16;13.73;;;5.90;;
52031;SDS011;38044;45.148;39.604;2023-02-28T06:04:42;15.18;;;6.88;;
52031;SDS011;38044;45.148;39.604;2023-02-28T06:07:09;12.05;;;6.45;;
52031;SDS011;38044;45.148;39.604;2023-02-28T06:09:35;16.10;;;6.93;;
52031;SDS011;38044;45.148;39.604;2023-02-28T06:12:02;14.65;;;7.28;;
52031;SDS011;38044;45.148;39.604;2023-02-28T06:14:31;15.30;;;8.65;;
52031;SDS011;38044;45.148;39.604;2023-02-28T06:16:58;22.40;;;11.00;;
52031;SDS011;38044;45.148;39.604;2023-02-28T06:19:24;22.70;;;10.70;;
52031;SDS011;38044;45.148;39.604;2023-02-28T06:21:51;26.92;;;11.40;;
52031;SDS011;38044;45.148;39.604;2023-02-28T06:24:21;23.05;;;10.32;;
52031;SDS011;38044;45.148;39.604;2023-02-28T06:26:48;21.45;;;9.65;;
52031;SDS011;38044;45.148;39.604;2023-02-28T06:29:14;11.18;;;6.10;;
52031;SDS011;38044;45.148;39.604;2023-02-28T06:31:46;14.07;;;8.25;;
52031;SDS011;38044;45.148;39.604;2023-02-28T06:34:13;14.70;;;8.82;;
52031;SDS011;38044;45.148;39.604;2023-02-28T06:36:39;9.23;;;6.97;;
52031;SDS011;38044;45.148;39.604;2023-02-28T06:39:06;11.65;;;6.68;;
52031;SDS011;38044;45.148;39.604;2023-02-28T06:41:33;15.00;;;8.32;;
52031;SDS011;38044;45.148;39.604;2023-02-28T06:44:10;16.67;;;8.80;;
52031;SDS011;38044;45.148;39.604;2023-02-28T06:46:41;11.77;;;6.53;;
52031;SDS011;38044;45.148;39.604;2023-02-28T06:49:07;8.50;;;5.40;;
52031;SDS011;38044;45.148;39.604;2023-02-28T06:51:34;9.57;;;6.03;;
52031;SDS011;38044;45.148;39.604;2023-02-28T06:54:01;15.77;;;7.07;;
52031;SDS011;38044;45.148;39.604;2023-02-28T06:56:27;14.90;;;7.72;;
52031;SDS011;38044;45.148;39.604;2023-02-28T06:58:53;28.13;;;11.95;;
52031;SDS011;38044;45.148;39.604;2023-02-28T07:01:19;16.83;;;9.32;;
52031;SDS011;38044;45.148;39.604;2023-02-28T07:03:47;18.90;;;9.25;;
52031;SDS011;38044;45.148;39.604;2023-02-28T07:06:17;21.55;;;10.20;;
52031;SDS011;38044;45.148;39.604;2023-02-28T07:08:44;13.90;;;7.68;;
52031;SDS011;38044;45.148;39.604;2023-02-28T07:11:10;16.75;;;8.23;;
52031;SDS011;38044;45.148;39.604;2023-02-28T07:13:36;23.73;;;10.23;;
52031;SDS011;38044;45.148;39.604;2023-02-28T07:16:03;14.15;;;7.63;;
52031;SDS011;38044;45.148;39.604;2023-02-28T07:18:31;13.13;;;7.95;;
52031;SDS011;38044;45.148;39.604;2023-02-28T07:20:57;25.52;;;10.45;;
52031;SDS011;38044;45.148;39.604;2023-02-28T07:23:23;18.20;;;9.50;;
52031;SDS011;38044;45.148;39.604;2023-02-28T07:25:50;20.30;;;10.02;;
52031;SDS011;38044;45.148;39.604;2023-02-28T07:28:16;13.55;;;8.27;;
52031;SDS011;38044;45.148;39.604;2023-02-28T07:30:42;10.52;;;7.32;;
52031;SDS011;38044;45.148;39.604;2023-02-28T07:33:08;17.05;;;7.03;;
52031;SDS011;38044;45.148;39.604;2023-02-28T07:35:34;17.25;;;7.07;;
52031;SDS011;38044;45.148;39.604;2023-02-28T07:38:00;12.60;;;6.47;;
52031;SDS011;38044;45.148;39.604;2023-02-28T07:40:25;12.02;;;6.93;;
52031;SDS011;38044;45.148;39.604;2023-02-28T07:42:52;13.93;;;7.45;;
52031;SDS011;38044;45.148;39.604;2023-02-28T07:45:17;13.52;;;7.75;;
52031;SDS011;38044;45.148;39.604;2023-02-28T07:47:44;9.75;;;7.10;;
52031;SDS011;38044;45.148;39.604;2023-02-28T07:50:12;11.68;;;7.18;;
52031;SDS011;38044;45.148;39.604;2023-02-28T07:52:40;10.77;;;6.80;;
52031;SDS011;38044;45.148;39.604;2023-02-28T07:55:07;15.60;;;7.50;;
52031;SDS011;38044;45.148;39.604;2023-02-28T07:57:34;16.15;;;7.75;;
52031;SDS011;38044;45.148;39.604;2023-02-28T08:00:01;11.45;;;7.15;;
52031;SDS011;38044;45.148;39.604;2023-02-28T08:02:28;14.18;;;6.80;;
52031;SDS011;38044;45.148;39.604;2023-02-28T08:04:54;9.60;;;6.85;;
52031;SDS011;38044;45.148;39.604;2023-02-28T08:07:20;10.80;;;6.32;;
52031;SDS011;38044;45.148;39.604;2023-02-28T08:09:45;11.10;;;6.30;;
52031;SDS011;38044;45.148;39.604;2023-02-28T08:12:11;12.45;;;5.72;;
52031;SDS011;38044;45.148;39.604;2023-02-28T08:14:37;9.95;;;6.03;;
52031;SDS011;38044;45.148;39.604;2023-02-28T08:17:04;12.18;;;6.25;;
52031;SDS011;38044;45.148;39.604;2023-02-28T08:19:30;15.85;;;6.75;;
52031;SDS011;38044;45.148;39.604;2023-02-28T08:21:57;13.40;;;6.90;;
52031;SDS011;38044;45.148;39.604;2023-02-28T08:24:23;14.02;;;7.60;;
52031;SDS011;38044;45.148;39.604;2023-02-28T08:26:49;19.38;;;9.45;;
52031;SDS011;38044;45.148;39.604;2023-02-28T08:29:15;13.95;;;7.93;;
52031;SDS011;38044;45.148;39.604;2023-02-28T08:31:41;10.63;;;6.70;;
52031;SDS011;38044;45.148;39.604;2023-02-28T08:34:12;11.40;;;7.15;;
52031;SDS011;38044;45.148;39.604;2023-02-28T08:36:39;10.75;;;6.75;;
52031;SDS011;38044;45.148;39.604;2023-02-28T08:39:05;10.05;;;6.25;;
52031;SDS011;38044;45.148;39.604;2023-02-28T08:41:32;10.43;;;6.32;;
52031;SDS011;38044;45.148;39.604;2023-02-28T08:43:58;11.65;;;6.57;;
52031;SDS011;38044;45.148;39.604;2023-02-28T08:46:25;12.48;;;6.97;;
52031;SDS011;38044;45.148;39.604;2023-02-28T08:48:52;29.92;;;8.20;;
52031;SDS011;38044;45.148;39.604;2023-02-28T08:51:19;20.95;;;8.15;;
52031;SDS011;38044;45.148;39.604;2023-02-28T08:53:51;12.02;;;7.00;;
52031;SDS011;38044;45.148;39.604;2023-02-28T08:56:18;18.88;;;9.43;;
52031;SDS011;38044;45.148;39.604;2023-02-28T08:58:45;16.98;;;8.98;;
52031;SDS011;38044;45.148;39.604;2023-02-28T09:01:15;21.15;;;8.45;;
52031;SDS011;38044;45.148;39.604;2023-02-28T09:03:45;15.02;;;7.95;;
52031;SDS011;38044;45.148;39.604;2023-02-28T09:06:13;16.80;;;8.63;;
52031;SDS011;38044;45.148;39.604;2023-02-28T09:08:40;10.60;;;7.15;;
52031;SDS011;38044;45.148;39.604;2023-02-28T09:11:06;13.98;;;7.88;;
52031;SDS011;38044;45.148;39.604;2023-02-28T09:13:33;14.48;;;7.93;;
52031;SDS011;38044;45.148;39.604;2023-02-28T09:15:59;13.07;;;8.18;;
52031;SDS011;38044;45.148;39.604;2023-02-28T09:18:27;21.88;;;16.27;;
52031;SDS011;38044;45.148;39.604;2023-02-28T09:20:53;13.98;;;9.27;;
52031;SDS011;38044;45.148;39.604;2023-02-28T09:23:19;18.27;;;10.65;;
52031;SDS011;38044;45.148;39.604;2023-02-28T09:25:49;19.05;;;10.90;;
52031;SDS011;38044;45.148;39.604;2023-02-28T09:28:17;13.35;;;8.15;;
52031;SDS011;38044;45.148;39.604;2023-02-28T09:30:47;15.50;;;8.65;;
52031;SDS011;38044;45.148;39.604;2023-02-28T09:33:16;18.23;;;8.13;;
52031;SDS011;38044;45.148;39.604;2023-02-28T09:35:45;16.77;;;7.72;;
52031;SDS011;38044;45.148;39.604;2023-02-28T09:38:12;12.35;;;7.15;;
52031;SDS011;38044;45.148;39.604;2023-02-28T09:40:48;14.75;;;7.38;;
52031;SDS011;38044;45.148;39.604;2023-02-28T09:43:16;11.30;;;6.82;;
52031;SDS011;38044;45.148;39.604;2023-02-28T09:46:28;12.13;;;7.75;;
52031;SDS011;38044;45.148;39.604;2023-02-28T09:48:51;12.93;;;8.05;;
52031;SDS011;38044;45.148;39.604;2023-02-28T09:51:28;13.98;;;8.25;;
52031;SDS011;38044;45.148;39.604;2023-02-28T09:54:13;17.45;;;9.52;;
52031;SDS011;38044;45.148;39.604;2023-02-28T10:02:21;13.90;;;7.68;;
52031;SDS011;38044;45.148;39.604;2023-02-28T10:04:59;13.27;;;8.13;;
52031;SDS011;38044;45.148;39.604;2023-02-28T10:09:59;14.82;;;7.95;;
52031;SDS011;38044;45.148;39.604;2023-02-28T10:12:30;12.68;;;7.55;;
52031;SDS011;38044;45.148;39.604;2023-02-28T10:14:57;15.15;;;8.10;;
52031;SDS011;38044;45.148;39.604;2023-02-28T10:17:26;14.13;;;7.93;;
52031;SDS011;38044;45.148;39.604;2023-02-28T10:22:38;17.60;;;8.45;;
52031;SDS011;38044;45.148;39.604;2023-02-28T10:25:33;15.05;;;8.43;;
52031;SDS011;38044;45.148;39.604;2023-02-28T10:28:13;21.98;;;8.43;;
52031;SDS011;38044;45.148;39.604;2023-02-28T10:30:46;17.45;;;8.55;;
52031;SDS011;38044;45.148;39.604;2023-02-28T10:36:02;14.20;;;8.27;;
52031;SDS011;38044;45.148;39.604;2023-02-28T10:38:32;18.85;;;8.98;;
52031;SDS011;38044;45.148;39.604;2023-02-28T10:41:47;15.88;;;8.32;;
52031;SDS011;38044;45.148;39.604;2023-02-28T10:46:56;12.77;;;8.35;;
52031;SDS011;38044;45.148;39.604;2023-02-28T10:49:26;13.02;;;8.02;;
52031;SDS011;38044;45.148;39.604;2023-02-28T10:51:57;21.85;;;8.05;;
52031;SDS011;38044;45.148;39.604;2023-02-28T10:54:32;14.63;;;7.30;;
52031;SDS011;38044;45.148;39.604;2023-02-28T10:57:06;16.35;;;9.10;;
52031;SDS011;38044;45.148;39.604;2023-02-28T10:59:44;13.75;;;8.70;;
52031;SDS011;38044;45.148;39.604;2023-02-28T11:02:30;12.85;;;8.70;;
52031;SDS011;38044;45.148;39.604;2023-02-28T11:04:58;13.82;;;8.23;;
52031;SDS011;38044;45.148;39.604;2023-02-28T11:07:25;15.10;;;8.23;;
52031;SDS011;38044;45.148;39.604;2023-02-28T11:09:54;16.92;;;9.07;;
52031;SDS011;38044;45.148;39.604;2023-02-28T11:12:38;14.35;;;9.82;;
52031;SDS011;38044;45.148;39.604;2023-02-28T11:17:44;12.57;;;7.97;;
52031;SDS011;38044;45.148;39.604;2023-02-28T11:20:21;14.80;;;7.55;;
52031;SDS011;38044;45.148;39.604;2023-02-28T11:22:50;16.17;;;8.73;;
52031;SDS011;38044;45.148;39.604;2023-02-28T11:25:24;12.80;;;8.55;;
52031;SDS011;38044;45.148;39.604;2023-02-28T11:27:56;17.38;;;9.20;;
52031;SDS011;38044;45.148;39.604;2023-02-28T11:32:53;17.95;;;9.55;;
52031;SDS011;38044;45.148;39.604;2023-02-28T11:35:26;15.48;;;9.48;;
52031;SDS011;38044;45.148;39.604;2023-02-28T11:38:02;15.43;;;9.20;;
52031;SDS011;38044;45.148;39.604;2023-02-28T11:40:39;13.40;;;8.90;;
52031;SDS011;38044;45.148;39.604;2023-02-28T11:49:01;15.80;;;9.50;;
52031;SDS011;38044;45.148;39.604;2023-02-28T11:51:44;16.30;;;9.40;;
52031;SDS011;38044;45.148;39.604;2023-02-28T11:57:16;16.20;;;10.48;;
52031;SDS011;38044;45.148;39.604;2023-02-28T12:02:25;24.92;;;14.77;;
52031;SDS011;38044;45.148;39.604;2023-02-28T12:05:08;15.43;;;10.88;;
52031;SDS011;38044;45.148;39.604;2023-02-28T12:26:29;18.15;;;10.15;;
52031;SDS011;38044;45.148;39.604;2023-02-28T12:29:19;15.88;;;9.82;;
52031;SDS011;38044;45.148;39.604;2023-02-28T12:31:53;15.25;;;8.60;;
52031;SDS011;38044;45.148;39.604;2023-02-28T12:34:28;15.57;;;8.50;;
52031;SDS011;38044;45.148;39.604;2023-02-28T12:37:19;17.02;;;8.13;;
52031;SDS011;38044;45.148;39.604;2023-02-28T12:40:03;15.00;;;8.18;;
52031;SDS011;38044;45.148;39.604;2023-02-28T12:42:43;20.00;;;10.48;;
52031;SDS011;38044;45.148;39.604;2023-02-28T12:45:18;19.25;;;10.90;;
52031;SDS011;38044;45.148;39.604;2023-02-28T12:50:16;13.10;;;7.72;;
52031;SDS011;38044;45.148;39.604;2023-02-28T12:58:44;14.20;;;7.97;;
52031;SDS011;38044;45.148;39.604;2023-02-28T13:09:56;17.77;;;9.48;;
52031;SDS011;38044;45.148;39.604;2023-02-28T13:12:24;17.95;;;9.93;;
52031;SDS011;38044;45.148;39.604;2023-02-28T13:15:01;16.42;;;9.50;;
52031;SDS011;38044;45.148;39.604;2023-02-28T13:17:29;19.58;;;10.45;;
52031;SDS011;38044;45.148;39.604;2023-02-28T13:27:47;18.38;;;9.85;;
52031;SDS011;38044;45.148;39.604;2023-02-28T13:35:45;25.48;;;10.63;;
52031;SDS011;38044;45.148;39.604;2023-02-28T13:38:16;18.92;;;10.60;;
52031;SDS011;38044;45.148;39.604;2023-02-28T13:41:26;19.50;;;10.50;;
52031;SDS011;38044;45.148;39.604;2023-02-28T13:51:53;20.70;;;10.98;;
52031;SDS011;38044;45.148;39.604;2023-02-28T13:57:09;21.50;;;12.15;;
52031;SDS011;38044;45.148;39.604;2023-02-28T13:59:48;22.92;;;12.98;;
52031;SDS011;38044;45.148;39.604;2023-02-28T14:02:35;22.63;;;13.10;;
52031;SDS011;38044;45.148;39.604;2023-02-28T14:05:15;20.83;;;11.73;;
52031;SDS011;38044;45.148;39.604;2023-02-28T14:07:45;24.70;;;12.90;;
52031;SDS011;38044;45.148;39.604;2023-02-28T14:10:21;21.83;;;12.13;;
52031;SDS011;38044;45.148;39.604;2023-02-28T14:13:03;21.58;;;13.75;;
52031;SDS011;38044;45.148;39.604;2023-02-28T14:18:22;24.45;;;14.82;;
52031;SDS011;38044;45.148;39.604;2023-02-28T14:20:58;30.48;;;15.90;;
52031;SDS011;38044;45.148;39.604;2023-02-28T14:23:55;30.35;;;17.02;;
52031;SDS011;38044;45.148;39.604;2023-02-28T14:26:47;27.80;;;15.88;;
52031;SDS011;38044;45.148;39.604;2023-02-28T14:29:30;29.70;;;17.10;;
52031;SDS011;38044;45.148;39.604;2023-02-28T14:35:20;34.50;;;17.60;;
52031;SDS011;38044;45.148;39.604;2023-02-28T14:38:07;31.17;;;16.80;;
52031;SDS011;38044;45.148;39.604;2023-02-28T14:40:42;32.28;;;17.50;;
52031;SDS011;38044;45.148;39.604;2023-02-28T14:43:21;34.95;;;18.30;;
52031;SDS011;38044;45.148;39.604;2023-02-28T14:45:53;30.23;;;18.45;;
52031;SDS011;38044;45.148;39.604;2023-02-28T14:48:22;35.92;;;22.05;;
52031;SDS011;38044;45.148;39.604;2023-02-28T14:50:51;29.25;;;17.92;;
52031;SDS011;38044;45.148;39.604;2023-02-28T14:53:26;30.83;;;17.50;;
52031;SDS011;38044;45.148;39.604;2023-02-28T14:55:54;31.00;;;17.08;;
52031;SDS011;38044;45.148;39.604;2023-02-28T14:58:31;31.05;;;18.10;;
52031;SDS011;38044;45.148;39.604;2023-02-28T15:00:59;32.03;;;18.42;;
52031;SDS011;38044;45.148;39.604;2023-02-28T15:05:58;33.70;;;18.50;;
52031;SDS011;38044;45.148;39.604;2023-02-28T15:08:26;30.50;;;18.92;;
52031;SDS011;38044;45.148;39.604;2023-02-28T15:13:26;35.42;;;20.33;;
52031;SDS011;38044;45.148;39.604;2023-02-28T15:16:02;37.28;;;20.25;;
52031;SDS011;38044;45.148;39.604;2023-02-28T15:18:33;41.65;;;22.63;;
52031;SDS011;38044;45.148;39.604;2023-02-28T15:21:22;43.42;;;23.20;;
52031;SDS011;38044;45.148;39.604;2023-02-28T15:24:14;44.53;;;23.52;;
52031;SDS011;38044;45.148;39.604;2023-02-28T15:26:50;40.08;;;22.13;;
52031;SDS011;38044;45.148;39.604;2023-02-28T15:29:20;41.47;;;22.60;;
52031;SDS011;38044;45.148;39.604;2023-02-28T15:31:52;38.15;;;21.10;;
52031;SDS011;38044;45.148;39.604;2023-02-28T15:34:26;40.65;;;20.85;;
52031;SDS011;38044;45.148;39.604;2023-02-28T15:36:58;40.63;;;21.63;;
52031;SDS011;38044;45.148;39.604;2023-02-28T15:39:25;40.97;;;22.10;;
52031;SDS011;38044;45.148;39.604;2023-02-28T15:42:09;40.35;;;21.27;;
52031;SDS011;38044;45.148;39.604;2023-02-28T15:44:42;40.72;;;23.77;;
52031;SDS011;38044;45.148;39.604;2023-02-28T15:47:16;47.17;;;24.98;;
52031;SDS011;38044;45.148;39.604;2023-02-28T15:49:49;40.08;;;23.00;;
52031;SDS011;38044;45.148;39.604;2023-02-28T15:52:27;39.17;;;20.80;;
52031;SDS011;38044;45.148;39.604;2023-02-28T15:55:06;39.65;;;21.70;;
52031;SDS011;38044;45.148;39.604;2023-02-28T15:57:38;41.50;;;23.10;;
52031;SDS011;38044;45.148;39.604;2023-02-28T16:00:06;38.80;;;20.38;;
52031;SDS011;38044;45.148;39.604;2023-02-28T16:02:38;41.03;;;22.60;;
52031;SDS011;38044;45.148;39.604;2023-02-28T16:07:37;45.17;;;22.38;;
52031;SDS011;38044;45.148;39.604;2023-02-28T16:10:08;44.42;;;23.42;;
52031;SDS011;38044;45.148;39.604;2023-02-28T16:12:36;40.78;;;23.38;;
52031;SDS011;38044;45.148;39.604;2023-02-28T16:15:46;39.72;;;22.58;;
52031;SDS011;38044;45.148;39.604;2023-02-28T16:17:54;37.33;;;21.70;;
52031;SDS011;38044;45.148;39.604;2023-02-28T16:20:22;38.80;;;21.65;;
52031;SDS011;38044;45.148;39.604;2023-02-28T16:22:55;35.60;;;21.13;;
52031;SDS011;38044;45.148;39.604;2023-02-28T16:25:33;37.40;;;20.90;;
52031;SDS011;38044;45.148;39.604;2023-02-28T16:28:08;37.63;;;20.85;;
52031;SDS011;38044;45.148;39.604;2023-02-28T16:30:42;35.10;;;20.70;;
52031;SDS011;38044;45.148;39.604;2023-02-28T16:33:08;34.72;;;19.73;;
52031;SDS011;38044;45.148;39.604;2023-02-28T16:35:35;33.58;;;18.85;;
52031;SDS011;38044;45.148;39.604;2023-02-28T16:38:01;39.72;;;21.10;;
52031;SDS011;38044;45.148;39.604;2023-02-28T16:40:27;41.47;;;21.85;;
52031;SDS011;38044;45.148;39.604;2023-02-28T16:42:57;42.05;;;22.35;;
52031;SDS011;38044;45.148;39.604;2023-02-28T16:45:27;40.50;;;22.80;;
52031;SDS011;38044;45.148;39.604;2023-02-28T16:47:54;47.38;;;24.15;;
52031;SDS011;38044;45.148;39.604;2023-02-28T16:50:24;45.47;;;24.05;;
52031;SDS011;38044;45.148;39.604;2023-02-28T16:52:52;48.70;;;26.92;;
52031;SDS011;38044;45.148;39.604;2023-02-28T16:55:19;43.42;;;23.52;;
52031;SDS011;38044;45.148;39.604;2023-02-28T16:57:48;39.15;;;23.27;;